createdAt,value
2023-03-17T00:03:05.243Z,91951.84
2023-03-17T00:06:10.960Z,91951.86
2023-03-17T00:09:26.457Z,91955.45
2023-03-17T00:12:21.407Z,91952.58
2023-03-17T00:15:17.856Z,91958.16
2023-03-17T00:18:36.532Z,91957.60
2023-03-17T00:22:05.701Z,91954.65
2023-03-17T00:25:47.584Z,91955.29
2023-03-17T00:28:51.094Z,91956.66
2023-03-17T00:32:05.383Z,91956.72
2023-03-17T00:35:34.556Z,91959.40
2023-03-17T00:38:31.550Z,91958.15
2023-03-17T00:44:34.305Z,91955.31
2023-03-17T00:47:27.139Z,91954.69
2023-03-17T00:51:16.274Z,91961.14
2023-03-17T00:54:57.011Z,91960.77
2023-03-17T00:58:04.215Z,91966.27
2023-03-17T01:01:22.367Z,91959.06
2023-03-17T01:04:30.341Z,91952.05
2023-03-17T01:07:52.789Z,91952.79
2023-03-17T01:11:13.360Z,91954.30
2023-03-17T01:14:15.119Z,91952.71
2023-03-17T01:17:39.440Z,91957.68
2023-03-17T01:20:52.656Z,91963.04
2023-03-17T01:24:03.913Z,91965.55
2023-03-17T01:27:10.141Z,91965.45
2023-03-17T01:30:17.612Z,91969.37
2023-03-17T01:33:46.577Z,91969.28
2023-03-17T01:36:47.853Z,91968.80
2023-03-17T01:39:51.486Z,91972.29
2023-03-17T01:42:25.558Z,91969.56
2023-03-17T01:45:45.968Z,91972.45
2023-03-17T01:48:32.359Z,91975.11
2023-03-17T01:51:25.441Z,91975.94
2023-03-17T01:54:59.515Z,91983.08
2023-03-17T01:58:30.067Z,91984.64
2023-03-17T02:01:29.293Z,91985.79
2023-03-17T02:04:16.276Z,91987.64
2023-03-17T02:07:06.006Z,91985.02
2023-03-17T02:10:26.457Z,91985.48
2023-03-17T02:13:31.389Z,91987.67
2023-03-17T02:16:32.843Z,91988.85
2023-03-17T02:19:02.319Z,91992.77
2023-03-17T02:22:34.025Z,91997.27
2023-03-17T02:25:38.564Z,92001.72
2023-03-17T02:28:35.691Z,92005.20
2023-03-17T02:31:08.790Z,92003.49
2023-03-17T02:34:49.623Z,92009.36
2023-03-17T02:38:22.060Z,92010.16
2023-03-17T02:41:04.301Z,92011.09
2023-03-17T02:44:44.333Z,92009.48
2023-03-17T02:48:23.444Z,92012.23
2023-03-17T02:51:48.045Z,92018.36
2023-03-17T02:54:36.906Z,92020.08
2023-03-17T02:58:07.164Z,92024.10
2023-03-17T03:01:37.320Z,92027.91
2023-03-17T03:04:34.856Z,92020.58
2023-03-17T03:07:59.646Z,92020.55
2023-03-17T03:11:30.004Z,92020.77
2023-03-17T03:15:10.062Z,92027.73
2023-03-17T03:18:59.301Z,92028.17
2023-03-17T03:22:32.290Z,92029.60
2023-03-17T03:25:36.056Z,92034.70
2023-03-17T03:28:43.071Z,92036.19
2023-03-17T03:31:51.955Z,92038.20
2023-03-17T03:35:26.666Z,92039.36
2023-03-17T03:39:08.256Z,92038.87
2023-03-17T03:42:51.476Z,92041.52
2023-03-17T03:46:38.856Z,92038.31
2023-03-17T03:50:28.290Z,92048.45
2023-03-17T03:53:25.450Z,92044.42
2023-03-17T03:56:01.019Z,92048.45
2023-03-17T03:59:10.053Z,92049.45
2023-03-17T04:02:31.002Z,92049.98
2023-03-17T04:05:32.892Z,92047.07
2023-03-17T04:08:29.343Z,92055.86
2023-03-17T04:11:18.066Z,92060.42
2023-03-17T04:14:11.866Z,92066.70
2023-03-17T04:17:08.928Z,92067.45
2023-03-17T04:20:01.805Z,92070.50
2023-03-17T04:22:56.771Z,92079.06
2023-03-17T04:25:39.910Z,92072.08
2023-03-17T04:28:29.580Z,92080.88
2023-03-17T04:31:41.072Z,92084.65
2023-03-17T04:34:31.505Z,92077.38
2023-03-17T04:37:48.807Z,92080.23
2023-03-17T04:40:48.942Z,92093.81
2023-03-17T04:44:19.701Z,92086.96
2023-03-17T04:47:07.766Z,92088.27
2023-03-17T04:50:24.257Z,92096.07
2023-03-17T04:53:35.152Z,92093.88
2023-03-17T04:56:35.024Z,92095.92
2023-03-17T04:59:44.505Z,92099.92
2023-03-17T05:03:26.773Z,92099.74
2023-03-17T05:06:22.613Z,92099.91
2023-03-17T05:09:52.016Z,92103.34
2023-03-17T05:13:02.758Z,92103.98
2023-03-17T05:15:33.889Z,92111.31
2023-03-17T05:18:45.700Z,92116.02
2023-03-17T05:22:24.898Z,92113.88
2023-03-17T05:25:44.367Z,92119.13
2023-03-17T05:28:27.933Z,92114.60
2023-03-17T05:31:26.853Z,92119.84
2023-03-17T05:34:27.321Z,92117.94
2023-03-17T05:37:49.657Z,92119.52
2023-03-17T05:41:28.671Z,92121.96
2023-03-17T05:45:10.919Z,92119.77
2023-03-17T05:47:51.518Z,92125.00
2023-03-17T05:50:24.144Z,92120.70
2023-03-17T05:53:21.069Z,92125.81
2023-03-17T05:55:55.152Z,92131.94
2023-03-17T05:58:53.192Z,92129.42
2023-03-17T06:01:54.750Z,92126.25
2023-03-17T06:04:33.782Z,92131.46
2023-03-17T06:07:02.421Z,92134.92
2023-03-17T06:09:34.398Z,92129.83
2023-03-17T06:12:08.489Z,92131.10
2023-03-17T06:14:45.972Z,92134.46
2023-03-17T06:17:37.406Z,92131.31
2023-03-17T06:20:33.666Z,92134.52
2023-03-17T06:23:07.697Z,92135.88
2023-03-17T06:26:27.068Z,92141.83
2023-03-17T06:29:14.223Z,92144.15
2023-03-17T06:31:50.445Z,92144.58
2023-03-17T06:54:23.976Z,92140.31
2023-03-17T06:58:13.197Z,92134.52
2023-03-17T07:02:02.498Z,92140.44
2023-03-17T07:05:51.883Z,92144.96
2023-03-17T07:09:21.021Z,92140.48
2023-03-17T07:13:10.383Z,92141.95
2023-03-17T07:16:07.805Z,92136.92
2023-03-17T07:19:13.120Z,92140.09
2023-03-17T07:22:01.477Z,92136.83
2023-03-17T07:24:43.251Z,92138.58
2023-03-17T07:27:17.481Z,92133.79
2023-03-17T07:30:09.068Z,92136.42
2023-03-17T07:33:00.189Z,92138.00
2023-03-17T07:36:10.597Z,92137.05
2023-03-17T07:39:18.631Z,92134.80
2023-03-17T07:42:33.220Z,92136.55
2023-03-17T07:46:06.542Z,92139.99
2023-03-17T07:49:09.498Z,92138.19
2023-03-17T07:52:11.600Z,92131.33
2023-03-17T07:55:36.425Z,92131.85
2023-03-17T07:59:05.326Z,92129.13
2023-03-17T08:02:34.479Z,92126.85
2023-03-17T08:05:54.613Z,92125.55
2023-03-17T08:09:06.768Z,92127.75
2023-03-17T08:11:55.644Z,92123.56
2023-03-17T08:14:29.922Z,92120.54
2023-03-17T08:17:03.383Z,92120.51
2023-03-17T08:19:52.003Z,92123.88
2023-03-17T08:22:27.893Z,92121.20
2023-03-17T08:25:18.333Z,92116.66
2023-03-17T08:28:01.601Z,92115.91
2023-03-17T08:30:33.569Z,92112.48
2023-03-17T08:33:02.964Z,92107.08
2023-03-17T08:35:35.065Z,92107.84
2023-03-17T08:38:11.847Z,92108.25
2023-03-17T08:40:41.198Z,92106.75
2023-03-17T08:43:18.970Z,92109.50
2023-03-17T08:45:49.690Z,92105.59
2023-03-17T08:48:21.766Z,92108.66
2023-03-17T08:50:50.245Z,92107.71
2023-03-17T08:53:22.197Z,92102.13
2023-03-17T08:55:50.764Z,92099.51
2023-03-17T08:58:24.644Z,92101.14
2023-03-17T09:01:02.883Z,92104.46
2023-03-17T09:03:34.868Z,92107.66
2023-03-17T09:07:03.382Z,92104.95
2023-03-17T09:09:36.801Z,92111.70
2023-03-17T09:12:12.390Z,92109.83
2023-03-17T09:15:52.189Z,92111.19
2023-03-17T09:18:57.513Z,92113.48
2023-03-17T09:21:55.633Z,92095.66
2023-03-17T09:25:06.704Z,92110.63
2023-03-17T09:28:35.761Z,92109.23
2023-03-17T09:31:41.833Z,92106.88
2023-03-17T09:34:30.924Z,92103.63
2023-03-17T09:37:38.363Z,92102.71
2023-03-17T09:40:28.571Z,92101.20
2023-03-17T09:43:23.608Z,92096.21
2023-03-17T09:45:55.581Z,92096.59
2023-03-17T09:48:52.908Z,92098.05
2023-03-17T09:51:21.503Z,92095.65
2023-03-17T09:54:18.653Z,92092.77
2023-03-17T09:56:52.241Z,92086.41
2023-03-17T09:59:30.988Z,92085.50
2023-03-17T10:02:02.421Z,92083.92
2023-03-17T10:04:30.959Z,92083.41
2023-03-17T10:07:05.636Z,92080.16
2023-03-17T10:09:59.765Z,92079.58
2023-03-17T10:13:05.936Z,92079.48
2023-03-17T10:15:53.662Z,92080.15
2023-03-17T10:18:27.255Z,92073.27
2023-03-17T10:21:00.968Z,92070.66
2023-03-17T10:23:33.613Z,92070.45
2023-03-17T10:26:34.327Z,92068.03
2023-03-17T10:29:11.017Z,92065.12
2023-03-17T10:31:42.346Z,92061.77
2023-03-17T10:34:47.256Z,92063.70
2023-03-17T10:37:24.160Z,92063.40
2023-03-17T10:40:22.187Z,92058.67
2023-03-17T10:43:04.057Z,92052.97
2023-03-17T10:45:44.021Z,92052.11
2023-03-17T10:48:53.425Z,92045.73
2023-03-17T10:52:08.235Z,92039.77
2023-03-17T11:43:48.999Z,92005.94
2023-03-17T11:46:36.361Z,92007.39
2023-03-17T11:49:12.253Z,92001.76
2023-03-17T11:51:59.620Z,92008.58
2023-03-17T11:55:04.726Z,92003.57
2023-03-17T11:57:39.321Z,91999.93
2023-03-17T12:00:35.541Z,91995.83
2023-03-17T12:03:23.315Z,91994.73
2023-03-17T12:05:56.351Z,91992.53
2023-03-17T12:08:37.812Z,91985.84
2023-03-17T12:11:13.012Z,91991.02
2023-03-17T12:13:54.011Z,91996.16
2023-03-17T12:16:57.916Z,91994.92
2023-03-17T12:19:57.582Z,91997.80
2023-03-17T12:22:34.919Z,91995.93
2023-03-17T12:25:33.263Z,91993.35
2023-03-17T12:28:23.121Z,91992.42
2023-03-17T12:31:00.016Z,91991.70
2023-03-17T12:33:36.816Z,91985.09
2023-03-17T12:36:07.951Z,91983.41
2023-03-17T12:38:54.008Z,91979.92
2023-03-17T12:41:38.654Z,91981.36
2023-03-17T12:44:39.395Z,91979.39
2023-03-17T12:47:34.989Z,91971.00
2023-03-17T12:50:16.041Z,91969.45
2023-03-17T12:53:22.098Z,91966.29
2023-03-17T12:55:53.399Z,91966.67
2023-03-17T12:58:30.915Z,91965.14
2023-03-17T13:01:20.799Z,91967.21
2023-03-17T13:04:19.964Z,91965.46
2023-03-17T13:07:14.774Z,91957.77
2023-03-17T13:10:09.106Z,91963.15
2023-03-17T13:12:40.376Z,91959.48
2023-03-17T13:15:38.280Z,91956.40
2023-03-17T13:18:13.770Z,91956.98
2023-03-17T13:20:51.607Z,91958.14
2023-03-17T13:23:24.010Z,91954.91
2023-03-17T13:25:53.975Z,91951.61
2023-03-17T13:28:44.493Z,91948.23
2023-03-17T13:31:33.661Z,91949.48
2023-03-17T13:34:17.952Z,91949.89
2023-03-17T13:36:52.064Z,91946.84
2023-03-17T13:39:45.163Z,91938.81
2023-03-17T13:42:26.212Z,91939.30
2023-03-17T13:45:09.795Z,91936.89
2023-03-17T13:47:42.528Z,91935.59
2023-03-17T13:50:16.568Z,91938.30
2023-03-17T13:53:10.571Z,91936.55
2023-03-17T13:55:41.972Z,91937.72
2023-03-17T13:58:11.803Z,91931.10
2023-03-17T14:00:44.458Z,91927.05
2023-03-17T14:03:18.202Z,91926.11
2023-03-17T14:05:51.351Z,91932.67
2023-03-17T14:08:33.894Z,91925.09
2023-03-17T14:11:09.096Z,91926.69
2023-03-17T14:13:49.276Z,91931.55
2023-03-17T14:16:24.538Z,91929.45
2023-03-17T14:19:00.802Z,91931.91
2023-03-17T14:21:33.806Z,91933.25
2023-03-17T14:24:04.451Z,91934.02
2023-03-17T14:26:33.264Z,91935.15
2023-03-17T14:29:04.940Z,91939.02
2023-03-17T14:31:33.513Z,91938.05
2023-03-17T14:34:02.256Z,91937.20
2023-03-17T14:36:33.773Z,91937.19
2023-03-17T14:39:02.137Z,91936.88
2023-03-17T14:41:32.221Z,91936.63
2023-03-17T14:44:02.278Z,91934.56
2023-03-17T14:46:41.212Z,91929.40
2023-03-17T14:49:17.186Z,91926.25
2023-03-17T14:51:48.983Z,91924.26
2023-03-17T14:54:22.648Z,91926.89
2023-03-17T14:57:02.057Z,91927.55
2023-03-17T14:59:34.887Z,91925.05
2023-03-17T15:02:16.060Z,91928.11
2023-03-17T15:04:57.204Z,91931.30
2023-03-17T15:07:37.055Z,91929.63
2023-03-17T15:10:07.509Z,91929.31
2023-03-17T15:12:36.309Z,91925.95
2023-03-17T15:15:12.428Z,91926.51
2023-03-17T15:17:40.853Z,91926.77
2023-03-17T15:20:20.012Z,91929.94
2023-03-17T15:22:57.847Z,91927.88
2023-03-17T15:25:32.089Z,91928.83
2023-03-17T15:28:00.370Z,91930.48
2023-03-17T15:30:37.436Z,91933.50
2023-03-17T15:33:24.136Z,91930.52
2023-03-17T15:35:52.509Z,91933.83
2023-03-17T15:38:21.781Z,91935.65
2023-03-17T15:40:50.368Z,91937.98
2023-03-17T15:43:21.995Z,91939.21
2023-03-17T15:46:17.368Z,91945.36
2023-03-17T15:48:46.746Z,91946.65
2023-03-17T15:51:16.436Z,91947.10
2023-03-17T15:53:44.833Z,91950.69
2023-03-17T15:56:19.199Z,91955.55
2023-03-17T15:58:49.411Z,91958.60
2023-03-17T16:01:18.572Z,91960.24
2023-03-17T16:03:48.241Z,91967.61
2023-03-17T16:06:22.583Z,91971.63
2023-03-17T16:08:51.848Z,91970.27
2023-03-17T16:11:28.290Z,91973.75
2023-03-17T16:14:00.584Z,91976.15
2023-03-17T16:16:43.711Z,91980.56
2023-03-17T16:19:16.780Z,91984.25
2023-03-17T16:21:45.132Z,91985.98
2023-03-17T16:24:20.486Z,91986.61
2023-03-17T16:26:49.413Z,91985.89
2023-03-17T16:29:19.138Z,91985.46
2023-03-17T16:31:50.086Z,91989.73
2023-03-17T16:34:27.317Z,92001.25
2023-03-17T16:36:56.800Z,92002.96
2023-03-17T16:39:25.920Z,92009.94
2023-03-17T16:41:54.174Z,92011.45
2023-03-17T16:44:23.614Z,92013.20
2023-03-17T16:46:52.009Z,92012.91
2023-03-17T16:49:23.094Z,92012.84
2023-03-17T16:51:51.409Z,92006.17
2023-03-17T16:54:19.834Z,92006.47
2023-03-17T16:56:48.283Z,92007.76
2023-03-17T16:59:21.688Z,92007.25
2023-03-17T17:01:49.974Z,92010.13
2023-03-17T17:04:18.356Z,92009.91
2023-03-17T17:06:46.602Z,92006.98
2023-03-17T17:09:14.840Z,92007.42
2023-03-17T17:11:43.047Z,92001.86
2023-03-17T17:14:11.389Z,92004.80
2023-03-17T17:16:40.555Z,92000.63
2023-03-17T17:19:18.129Z,92003.02
2023-03-17T17:21:46.454Z,92003.64
2023-03-17T17:24:15.566Z,92006.36
2023-03-17T17:26:44.024Z,92002.79
2023-03-17T17:29:12.360Z,92003.68
2023-03-17T17:31:41.376Z,92004.42
2023-03-17T17:34:09.676Z,92007.79
2023-03-17T17:36:37.955Z,92012.59
2023-03-17T17:39:06.944Z,92019.51
2023-03-17T17:41:35.286Z,92024.89
2023-03-17T17:44:03.701Z,92032.41
2023-03-17T17:46:32.879Z,92033.65
2023-03-17T17:49:01.623Z,92035.95
2023-03-17T17:51:31.238Z,92043.00
2023-03-17T17:53:59.586Z,92044.54
2023-03-17T17:56:27.795Z,92052.46
2023-03-17T17:58:56.052Z,92055.63
2023-03-17T18:01:26.298Z,92053.94
2023-03-17T18:03:54.544Z,92052.96
2023-03-17T18:06:22.797Z,92063.21
2023-03-17T18:08:51.317Z,92068.24
2023-03-17T18:11:19.672Z,92074.71
2023-03-17T18:13:48.169Z,92073.86
2023-03-17T18:16:18.689Z,92073.63
2023-03-17T18:18:47.362Z,92080.13
2023-03-17T18:21:16.206Z,92083.50
2023-03-17T18:23:47.453Z,92084.61
2023-03-17T18:26:17.910Z,92085.70
2023-03-17T18:28:47.571Z,92090.30
2023-03-17T18:31:20.638Z,92092.37
2023-03-17T18:33:51.983Z,92095.59
2023-03-17T18:36:21.639Z,92096.23
2023-03-17T18:38:50.031Z,92099.02
2023-03-17T18:41:18.423Z,92100.55
2023-03-17T18:43:46.695Z,92099.73
2023-03-17T18:46:15.005Z,92100.29
2023-03-17T18:48:43.649Z,92103.86
2023-03-17T18:51:11.812Z,92107.95
2023-03-17T18:53:40.189Z,92108.66
2023-03-17T18:56:08.785Z,92110.25
2023-03-17T18:58:37.536Z,92113.50
2023-03-17T19:01:06.636Z,92115.84
2023-03-17T19:03:35.340Z,92119.86
2023-03-17T19:06:16.801Z,92118.53
2023-03-17T19:08:45.802Z,92120.67
2023-03-17T19:11:17.056Z,92122.22
2023-03-17T19:13:46.606Z,92121.24
2023-03-17T19:16:15.330Z,92124.96
2023-03-17T19:18:43.557Z,92131.48
2023-03-17T19:21:13.418Z,92123.14
2023-03-17T19:23:41.779Z,92127.48
2023-03-17T19:26:10.612Z,92124.46
2023-03-17T19:28:39.019Z,92128.44
2023-03-17T19:31:07.614Z,92128.55
2023-03-17T19:33:37.175Z,92129.49
2023-03-17T19:36:12.141Z,92132.98
2023-03-17T19:38:41.210Z,92131.42
2023-03-17T19:41:09.808Z,92129.95
2023-03-17T19:43:41.102Z,92127.91
2023-03-17T19:46:12.097Z,92127.64
2023-03-17T19:48:40.811Z,92128.13
2023-03-17T19:51:09.557Z,92127.18
2023-03-17T19:53:38.278Z,92128.46
2023-03-17T19:56:07.357Z,92129.88
2023-03-17T19:58:36.078Z,92127.80
2023-03-17T20:01:05.796Z,92130.73
2023-03-17T20:03:35.634Z,92131.39
2023-03-17T20:06:06.619Z,92131.87
2023-03-17T20:08:36.403Z,92129.60
2023-03-17T20:11:06.134Z,92129.84
2023-03-17T20:13:36.437Z,92133.08
2023-03-17T20:16:06.079Z,92130.42
2023-03-17T20:18:34.887Z,92130.54
2023-03-17T20:21:06.006Z,92127.66
2023-03-17T20:23:35.623Z,92124.71
2023-03-17T20:26:04.809Z,92124.86
2023-03-17T20:28:33.051Z,92121.98
2023-03-17T20:31:04.474Z,92124.20
2023-03-17T20:33:33.636Z,92123.80
2023-03-17T20:36:03.481Z,92120.58
2023-03-17T20:38:33.532Z,92121.41
2023-03-17T20:41:13.780Z,92121.58
2023-03-17T20:43:42.133Z,92120.40
2023-03-17T20:46:22.257Z,92122.21
2023-03-17T20:48:58.497Z,92124.23
2023-03-17T20:51:26.984Z,92125.60
2023-03-17T20:53:57.018Z,92127.39
2023-03-17T20:56:28.484Z,92128.42
2023-03-17T20:58:58.604Z,92123.05
2023-03-17T21:01:27.385Z,92123.14
2023-03-17T21:03:55.873Z,92124.34
2023-03-17T21:06:26.139Z,92122.11
2023-03-17T21:08:55.494Z,92123.13
2023-03-17T21:11:23.805Z,92118.55
2023-03-17T21:13:52.237Z,92120.59
2023-03-17T21:16:23.946Z,92121.98
2023-03-17T21:18:52.816Z,92122.47
2023-03-17T21:21:22.128Z,92122.73
2023-03-17T21:23:51.331Z,92121.47
2023-03-17T21:26:19.974Z,92122.75
2023-03-17T21:28:48.893Z,92122.94
2023-03-17T21:31:17.419Z,92122.16
2023-03-17T21:33:50.640Z,92118.53
2023-03-17T21:36:20.987Z,92118.16
2023-03-17T21:38:49.243Z,92117.93
2023-03-17T21:41:23.803Z,92113.52
2023-03-17T21:43:51.993Z,92112.55
2023-03-17T21:46:20.493Z,92111.99
2023-03-17T21:48:49.754Z,92108.99
2023-03-17T21:51:18.232Z,92110.50
2023-03-17T21:53:46.973Z,92108.88
2023-03-17T21:56:15.213Z,92107.05
2023-03-17T21:58:43.380Z,92107.77
2023-03-17T22:01:12.369Z,92108.03
2023-03-17T22:03:42.389Z,92109.84
2023-03-17T22:06:11.948Z,92109.46
2023-03-17T22:08:40.732Z,92110.61
2023-03-17T22:11:17.368Z,92110.27
2023-03-17T22:13:46.236Z,92115.54
2023-03-17T22:16:16.586Z,92113.21
2023-03-17T22:18:44.859Z,92109.86
2023-03-17T22:21:13.587Z,92117.61
2023-03-17T22:23:42.594Z,92114.25
2023-03-17T22:26:16.871Z,92116.65
2023-03-17T22:28:47.262Z,92116.81
2023-03-17T22:31:27.374Z,92117.36
2023-03-17T22:33:59.259Z,92120.59
2023-03-17T22:36:29.254Z,92123.26
2023-03-17T22:38:58.549Z,92119.34
2023-03-17T22:41:29.629Z,92119.66
2023-03-17T22:43:58.567Z,92115.80
2023-03-17T22:46:27.392Z,92117.77
2023-03-17T22:48:55.882Z,92119.95
2023-03-17T22:51:25.516Z,92118.10
2023-03-17T22:53:55.379Z,92116.96
2023-03-17T22:56:25.178Z,92120.59
2023-03-17T22:58:54.466Z,92118.45
2023-03-17T23:01:25.903Z,92118.32
2023-03-17T23:03:55.114Z,92117.70
2023-03-17T23:06:23.850Z,92115.36
2023-03-17T23:08:52.486Z,92121.77
2023-03-17T23:11:23.726Z,92121.20
2023-03-17T23:13:52.855Z,92122.13
2023-03-17T23:16:22.314Z,92118.29
2023-03-17T23:18:51.046Z,92119.98
2023-03-17T23:21:38.937Z,92116.85
2023-03-17T23:24:08.739Z,92114.45
2023-03-17T23:26:37.168Z,92108.02
2023-03-17T23:29:08.531Z,92111.66
2023-03-17T23:31:37.244Z,92116.73
2023-03-17T23:34:06.944Z,92118.48
2023-03-17T23:36:40.249Z,92115.52
2023-03-17T23:39:10.003Z,92114.39
2023-03-17T23:41:38.434Z,92115.38
2023-03-17T23:44:07.534Z,92111.38
2023-03-17T23:46:36.727Z,92111.62
2023-03-17T23:49:07.357Z,92109.71
2023-03-17T23:51:35.862Z,92111.29
2023-03-17T23:54:05.029Z,92111.84
2023-03-17T23:56:34.068Z,92114.35
2023-03-17T23:59:04.038Z,92114.23
